sensor_id;sensor_type;location;lat;lon;timestamp;pressure;altitude;pressure_sealevel;temperature;humidity
14293;BME280;62290;59.420;17.842;2023-06-14T00:00:04;101857.19;;;26.17;26.88
14293;BME280;62290;59.420;17.842;2023-06-14T00:02:34;101859.97;;;26.15;26.73
14293;BME280;62290;59.420;17.842;2023-06-14T00:05:03;101860.13;;;26.14;26.59
14293;BME280;62290;59.420;17.842;2023-06-14T00:07:36;101858.41;;;26.13;26.91
14293;BME280;62290;59.420;17.842;2023-06-14T00:10:07;101848.16;;;26.05;26.60
14293;BME280;62290;59.420;17.842;2023-06-14T00:12:35;101859.72;;;26.07;26.88
14293;BME280;62290;59.420;17.842;2023-06-14T00:15:04;101860.72;;;26.06;27.09
14293;BME280;62290;59.420;17.842;2023-06-14T00:17:33;101853.72;;;26.04;27.08
14293;BME280;62290;59.420;17.842;2023-06-14T00:20:04;101856.50;;;26.02;27.04
14293;BME280;62290;59.420;17.842;2023-06-14T00:22:34;101855.78;;;26.00;26.91
14293;BME280;62290;59.420;17.842;2023-06-14T00:25:04;101809.38;;;25.73;27.43
14293;BME280;62290;59.420;17.842;2023-06-14T00:27:54;101860.47;;;25.98;27.21
14293;BME280;62290;59.420;17.842;2023-06-14T00:30:23;101859.72;;;25.96;27.08
14293;BME280;62290;59.420;17.842;2023-06-14T00:32:51;101858.84;;;25.96;27.23
14293;BME280;62290;59.420;17.842;2023-06-14T00:35:19;101863.53;;;25.94;27.43
14293;BME280;62290;59.420;17.842;2023-06-14T00:37:47;101870.78;;;25.93;27.06
14293;BME280;62290;59.420;17.842;2023-06-14T00:40:15;101872.75;;;25.91;27.62
14293;BME280;62290;59.420;17.842;2023-06-14T00:42:44;101877.38;;;25.89;27.65
14293;BME280;62290;59.420;17.842;2023-06-14T00:45:14;101866.56;;;25.89;27.82
14293;BME280;62290;59.420;17.842;2023-06-14T00:47:43;101857.88;;;25.86;27.46
14293;BME280;62290;59.420;17.842;2023-06-14T00:50:12;101864.16;;;25.86;27.77
14293;BME280;62290;59.420;17.842;2023-06-14T00:52:40;101873.22;;;25.85;27.80
14293;BME280;62290;59.420;17.842;2023-06-14T00:55:09;101872.34;;;25.85;27.88
14293;BME280;62290;59.420;17.842;2023-06-14T00:57:37;101873.34;;;25.84;27.46
14293;BME280;62290;59.420;17.842;2023-06-14T01:00:08;101872.81;;;25.78;27.98
14293;BME280;62290;59.420;17.842;2023-06-14T01:02:38;101876.16;;;25.82;27.91
14293;BME280;62290;59.420;17.842;2023-06-14T01:05:09;101874.44;;;25.81;28.17
14293;BME280;62290;59.420;17.842;2023-06-14T01:07:56;101873.69;;;25.79;27.83
14293;BME280;62290;59.420;17.842;2023-06-14T01:10:37;101869.28;;;25.78;27.71
14293;BME280;62290;59.420;17.842;2023-06-14T01:13:13;101871.22;;;25.76;27.97
14293;BME280;62290;59.420;17.842;2023-06-14T01:15:44;101869.03;;;25.70;27.94
14293;BME280;62290;59.420;17.842;2023-06-14T01:18:14;101879.59;;;25.73;28.08
14293;BME280;62290;59.420;17.842;2023-06-14T01:20:45;101873.78;;;25.66;27.98
14293;BME280;62290;59.420;17.842;2023-06-14T01:23:18;101879.94;;;25.68;28.20
14293;BME280;62290;59.420;17.842;2023-06-14T01:25:47;101881.66;;;25.69;28.12
14293;BME280;62290;59.420;17.842;2023-06-14T01:28:20;101882.63;;;25.68;28.17
14293;BME280;62290;59.420;17.842;2023-06-14T01:30:51;101881.91;;;25.66;28.38
14293;BME280;62290;59.420;17.842;2023-06-14T01:33:21;101883.72;;;25.66;28.18
14293;BME280;62290;59.420;17.842;2023-06-14T01:35:51;101878.47;;;25.64;28.40
14293;BME280;62290;59.420;17.842;2023-06-14T01:38:23;101883.00;;;25.64;28.59
14293;BME280;62290;59.420;17.842;2023-06-14T01:40:54;101877.72;;;25.62;28.34
14293;BME280;62290;59.420;17.842;2023-06-14T01:43:25;101876.88;;;25.62;28.30
14293;BME280;62290;59.420;17.842;2023-06-14T01:45:53;101873.44;;;25.60;28.86
14293;BME280;62290;59.420;17.842;2023-06-14T01:48:22;101872.56;;;25.59;28.40
14293;BME280;62290;59.420;17.842;2023-06-14T01:50:51;101870.97;;;25.57;28.52
14293;BME280;62290;59.420;17.842;2023-06-14T01:53:21;101878.19;;;25.56;28.79
14293;BME280;62290;59.420;17.842;2023-06-14T01:55:49;101872.94;;;25.55;28.90
14293;BME280;62290;59.420;17.842;2023-06-14T01:58:21;101880.16;;;25.54;28.56
14293;BME280;62290;59.420;17.842;2023-06-14T02:00:50;101876.59;;;25.54;28.69
14293;BME280;62290;59.420;17.842;2023-06-14T02:03:22;101870.94;;;25.46;28.94
14293;BME280;62290;59.420;17.842;2023-06-14T02:05:52;101865.16;;;25.50;28.63
14293;BME280;62290;59.420;17.842;2023-06-14T02:08:22;101870.69;;;25.49;29.19
14293;BME280;62290;59.420;17.842;2023-06-14T02:10:51;101862.84;;;25.46;29.02
14293;BME280;62290;59.420;17.842;2023-06-14T02:13:21;101871.66;;;25.48;28.87
14293;BME280;62290;59.420;17.842;2023-06-14T02:15:50;101870.78;;;25.47;28.83
14293;BME280;62290;59.420;17.842;2023-06-14T02:18:21;101862.94;;;25.44;28.93
14293;BME280;62290;59.420;17.842;2023-06-14T02:20:49;101869.16;;;25.45;29.27
14293;BME280;62290;59.420;17.842;2023-06-14T02:23:18;101859.72;;;25.39;29.18
14293;BME280;62290;59.420;17.842;2023-06-14T02:25:47;101867.56;;;25.42;28.93
14293;BME280;62290;59.420;17.842;2023-06-14T02:28:15;101865.72;;;25.43;29.30
14293;BME280;62290;59.420;17.842;2023-06-14T02:30:44;101869.28;;;25.43;29.53
14293;BME280;62290;59.420;17.842;2023-06-14T02:33:12;101870.25;;;25.42;29.29
14293;BME280;62290;59.420;17.842;2023-06-14T02:35:40;101861.16;;;25.32;29.17
14293;BME280;62290;59.420;17.842;2023-06-14T02:38:08;101873.09;;;25.41;29.21
14293;BME280;62290;59.420;17.842;2023-06-14T02:40:36;101877.63;;;25.40;29.54
14293;BME280;62290;59.420;17.842;2023-06-14T02:43:05;101870.16;;;25.44;29.74
14293;BME280;62290;59.420;17.842;2023-06-14T02:45:33;101871.25;;;25.41;29.78
14293;BME280;62290;59.420;17.842;2023-06-14T02:48:01;101865.84;;;25.41;29.90
14293;BME280;62290;59.420;17.842;2023-06-14T02:50:30;101872.97;;;25.42;29.80
14293;BME280;62290;59.420;17.842;2023-06-14T02:52:59;101869.44;;;25.42;29.71
14293;BME280;62290;59.420;17.842;2023-06-14T02:55:27;101877.53;;;25.42;29.72
14293;BME280;62290;59.420;17.842;2023-06-14T02:57:55;101881.91;;;25.43;29.87
14293;BME280;62290;59.420;17.842;2023-06-14T03:00:26;101887.31;;;25.43;29.89
14293;BME280;62290;59.420;17.842;2023-06-14T03:02:57;101883.88;;;25.41;29.99
14293;BME280;62290;59.420;17.842;2023-06-14T03:05:28;101883.00;;;25.40;30.30
14293;BME280;62290;59.420;17.842;2023-06-14T03:07:56;101886.72;;;25.39;30.10
14293;BME280;62290;59.420;17.842;2023-06-14T03:10:24;101894.69;;;25.41;30.03
14293;BME280;62290;59.420;17.842;2023-06-14T03:12:57;101891.97;;;25.41;30.34
14293;BME280;62290;59.420;17.842;2023-06-14T03:15:26;101891.97;;;25.41;30.10
14293;BME280;62290;59.420;17.842;2023-06-14T03:17:56;101886.72;;;25.39;30.24
14293;BME280;62290;59.420;17.842;2023-06-14T03:20:26;101895.66;;;25.40;30.41
14293;BME280;62290;59.420;17.842;2023-06-14T03:22:55;101897.50;;;25.39;30.84
14293;BME280;62290;59.420;17.842;2023-06-14T03:25:24;101897.50;;;25.39;30.76
14293;BME280;62290;59.420;17.842;2023-06-14T03:27:56;101887.53;;;25.40;30.79
14293;BME280;62290;59.420;17.842;2023-06-14T03:30:24;101895.91;;;25.37;31.12
14293;BME280;62290;59.420;17.842;2023-06-14T03:32:54;101901.03;;;25.40;31.16
14293;BME280;62290;59.420;17.842;2023-06-14T03:35:25;101907.44;;;25.39;30.83
14293;BME280;62290;59.420;17.842;2023-06-14T03:37:54;101903.00;;;25.38;31.02
14293;BME280;62290;59.420;17.842;2023-06-14T03:40:23;101902.03;;;25.39;31.26
14293;BME280;62290;59.420;17.842;2023-06-14T03:43:00;101897.59;;;25.38;31.30
14293;BME280;62290;59.420;17.842;2023-06-14T03:45:28;101897.59;;;25.38;31.24
14293;BME280;62290;59.420;17.842;2023-06-14T03:47:58;101910.00;;;25.40;31.43
14293;BME280;62290;59.420;17.842;2023-06-14T03:50:29;101903.75;;;25.40;31.73
14293;BME280;62290;59.420;17.842;2023-06-14T03:52:58;101912.84;;;25.39;31.83
14293;BME280;62290;59.420;17.842;2023-06-14T03:55:28;101902.78;;;25.41;31.85
14293;BME280;62290;59.420;17.842;2023-06-14T03:58:01;101905.34;;;25.42;31.61
14293;BME280;62290;59.420;17.842;2023-06-14T04:00:30;101906.13;;;25.44;31.45
14293;BME280;62290;59.420;17.842;2023-06-14T04:03:00;101911.19;;;25.49;31.54
14293;BME280;62290;59.420;17.842;2023-06-14T04:05:30;101894.44;;;25.44;31.42
14293;BME280;62290;59.420;17.842;2023-06-14T04:07:59;101902.50;;;25.56;31.93
14293;BME280;62290;59.420;17.842;2023-06-14T04:10:30;101907.53;;;25.61;31.47
14293;BME280;62290;59.420;17.842;2023-06-14T04:12:58;101910.84;;;25.64;31.39
14293;BME280;62290;59.420;17.842;2023-06-14T04:15:26;101911.34;;;25.69;31.38
14293;BME280;62290;59.420;17.842;2023-06-14T04:17:56;101903.75;;;25.74;31.37
14293;BME280;62290;59.420;17.842;2023-06-14T04:20:26;101914.09;;;25.81;31.50
14293;BME280;62290;59.420;17.842;2023-06-14T04:22:56;101894.44;;;25.78;31.71
14293;BME280;62290;59.420;17.842;2023-06-14T04:25:25;101902.69;;;25.88;31.94
14293;BME280;62290;59.420;17.842;2023-06-14T04:27:55;101907.72;;;25.93;31.82
14293;BME280;62290;59.420;17.842;2023-06-14T04:30:24;101898.41;;;25.97;31.71
14293;BME280;62290;59.420;17.842;2023-06-14T04:32:54;101902.72;;;25.99;31.91
14293;BME280;62290;59.420;17.842;2023-06-14T04:35:23;101902.56;;;26.01;31.75
14293;BME280;62290;59.420;17.842;2023-06-14T04:37:54;101902.44;;;26.02;32.27
14293;BME280;62290;59.420;17.842;2023-06-14T04:40:22;101902.44;;;26.02;32.46
14293;BME280;62290;59.420;17.842;2023-06-14T04:42:50;101896.81;;;26.05;32.23
14293;BME280;62290;59.420;17.842;2023-06-14T04:45:19;101897.53;;;26.07;32.48
14293;BME280;62290;59.420;17.842;2023-06-14T04:47:51;101899.03;;;26.11;32.50
14293;BME280;62290;59.420;17.842;2023-06-14T04:50:26;101889.72;;;26.15;32.19
14293;BME280;62290;59.420;17.842;2023-06-14T04:52:57;101891.94;;;26.21;32.69
14293;BME280;62290;59.420;17.842;2023-06-14T04:55:27;101889.84;;;26.25;32.51
14293;BME280;62290;59.420;17.842;2023-06-14T04:57:55;101890.44;;;26.28;32.13
14293;BME280;62290;59.420;17.842;2023-06-14T05:00:24;101894.88;;;26.29;32.03
14293;BME280;62290;59.420;17.842;2023-06-14T05:02:52;101895.59;;;26.31;32.06
14293;BME280;62290;59.420;17.842;2023-06-14T05:05:21;101893.91;;;26.30;32.00
14293;BME280;62290;59.420;17.842;2023-06-14T05:07:49;101896.59;;;26.30;32.03
14293;BME280;62290;59.420;17.842;2023-06-14T05:10:19;101902.00;;;26.30;32.28
14293;BME280;62290;59.420;17.842;2023-06-14T05:12:47;101898.78;;;26.25;31.97
14293;BME280;62290;59.420;17.842;2023-06-14T05:15:17;101894.16;;;26.27;31.67
14293;BME280;62290;59.420;17.842;2023-06-14T05:17:46;101893.53;;;26.24;31.82
14293;BME280;62290;59.420;17.842;2023-06-14T05:20:20;101903.38;;;26.25;32.07
14293;BME280;62290;59.420;17.842;2023-06-14T05:22:49;101896.22;;;26.24;31.84
14293;BME280;62290;59.420;17.842;2023-06-14T05:25:20;101904.47;;;26.22;31.95
14293;BME280;62290;59.420;17.842;2023-06-14T05:27:48;101903.47;;;26.23;32.40
14293;BME280;62290;59.420;17.842;2023-06-14T05:30:17;101902.50;;;26.24;31.88
14293;BME280;62290;59.420;17.842;2023-06-14T05:32:45;101901.50;;;26.25;31.77
14293;BME280;62290;59.420;17.842;2023-06-14T05:35:13;101901.50;;;26.25;31.83
14293;BME280;62290;59.420;17.842;2023-06-14T05:37:42;101903.38;;;26.25;31.49
14293;BME280;62290;59.420;17.842;2023-06-14T05:40:10;101907.75;;;26.26;31.43
14293;BME280;62290;59.420;17.842;2023-06-14T05:42:40;101840.81;;;25.85;31.33
14293;BME280;62290;59.420;17.842;2023-06-14T05:45:08;101904.34;;;26.24;31.50
14293;BME280;62290;59.420;17.842;2023-06-14T05:47:36;101900.75;;;26.23;31.16
14293;BME280;62290;59.420;17.842;2023-06-14T05:50:05;101905.31;;;26.23;31.43
14293;BME280;62290;59.420;17.842;2023-06-14T05:52:34;101873.34;;;26.06;31.41
14293;BME280;62290;59.420;17.842;2023-06-14T05:55:04;101910.13;;;26.19;31.60
14293;BME280;62290;59.420;17.842;2023-06-14T05:57:32;101902.13;;;26.18;31.30
14293;BME280;62290;59.420;17.842;2023-06-14T06:00:02;101909.97;;;26.21;30.99
14293;BME280;62290;59.420;17.842;2023-06-14T06:02:37;101892.88;;;26.09;30.89
14293;BME280;62290;59.420;17.842;2023-06-14T06:05:06;101915.38;;;26.21;30.81
14293;BME280;62290;59.420;17.842;2023-06-14T06:07:35;101914.28;;;26.23;30.75
14293;BME280;62290;59.420;17.842;2023-06-14T06:10:04;101913.31;;;26.24;30.51
14293;BME280;62290;59.420;17.842;2023-06-14T06:12:33;101914.66;;;26.30;30.24
14293;BME280;62290;59.420;17.842;2023-06-14T06:15:02;101915.16;;;26.35;30.22
14293;BME280;62290;59.420;17.842;2023-06-14T06:17:30;101922.00;;;26.39;29.71
14293;BME280;62290;59.420;17.842;2023-06-14T06:20:18;101918.09;;;26.43;29.77
14293;BME280;62290;59.420;17.842;2023-06-14T06:22:47;101921.16;;;26.50;29.37
14293;BME280;62290;59.420;17.842;2023-06-14T06:25:16;101920.66;;;26.56;28.93
14293;BME280;62290;59.420;17.842;2023-06-14T06:27:44;101923.00;;;26.60;29.34
14293;BME280;62290;59.420;17.842;2023-06-14T06:30:14;101920.03;;;26.63;28.69
14293;BME280;62290;59.420;17.842;2023-06-14T06:32:42;101931.59;;;26.65;28.43
14293;BME280;62290;59.420;17.842;2023-06-14T06:35:10;101924.19;;;26.67;28.53
14293;BME280;62290;59.420;17.842;2023-06-14T06:37:41;101933.19;;;26.68;28.96
14293;BME280;62290;59.420;17.842;2023-06-14T06:40:10;101933.91;;;26.70;29.02
14293;BME280;62290;59.420;17.842;2023-06-14T06:42:38;101939.22;;;26.71;28.93
14293;BME280;62290;59.420;17.842;2023-06-14T06:45:10;101930.13;;;26.72;28.99
14293;BME280;62290;59.420;17.842;2023-06-14T06:47:41;101929.84;;;26.75;29.28
14293;BME280;62290;59.420;17.842;2023-06-14T06:50:09;101935.19;;;26.77;29.47
14293;BME280;62290;59.420;17.842;2023-06-14T06:52:37;101930.50;;;26.79;29.45
14293;BME280;62290;59.420;17.842;2023-06-14T06:55:06;101930.25;;;26.82;29.48
14293;BME280;62290;59.420;17.842;2023-06-14T06:57:35;101932.94;;;26.82;29.87
14293;BME280;62290;59.420;17.842;2023-06-14T07:00:04;101933.69;;;26.84;30.09
14293;BME280;62290;59.420;17.842;2023-06-14T07:02:34;101937.34;;;26.83;29.99
14293;BME280;62290;59.420;17.842;2023-06-14T07:05:04;101939.09;;;26.84;30.00
14293;BME280;62290;59.420;17.842;2023-06-14T07:07:33;101935.66;;;26.82;29.71
14293;BME280;62290;59.420;17.842;2023-06-14T07:10:01;101940.06;;;26.83;29.58
14293;BME280;62290;59.420;17.842;2023-06-14T07:12:31;101940.06;;;26.83;29.84
14293;BME280;62290;59.420;17.842;2023-06-14T07:15:01;101917.69;;;26.70;29.43
14293;BME280;62290;59.420;17.842;2023-06-14T07:17:30;101941.06;;;26.82;29.46
14293;BME280;62290;59.420;17.842;2023-06-14T07:19:58;101935.25;;;26.75;29.76
14293;BME280;62290;59.420;17.842;2023-06-14T07:22:28;101945.38;;;26.84;29.67
14293;BME280;62290;59.420;17.842;2023-06-14T07:24:57;101939.97;;;26.84;29.47
14293;BME280;62290;59.420;17.842;2023-06-14T07:27:25;101936.63;;;26.81;28.94
14293;BME280;62290;59.420;17.842;2023-06-14T07:29:53;101942.53;;;26.86;28.76
14293;BME280;62290;59.420;17.842;2023-06-14T07:32:21;101934.78;;;26.81;28.80
14293;BME280;62290;59.420;17.842;2023-06-14T07:34:49;101941.28;;;26.90;28.19
14293;BME280;62290;59.420;17.842;2023-06-14T07:37:17;101930.72;;;26.87;27.78
14293;BME280;62290;59.420;17.842;2023-06-14T07:39:46;101936.38;;;26.95;27.32
14293;BME280;62290;59.420;17.842;2023-06-14T07:42:14;101938.81;;;26.98;26.53
14293;BME280;62290;59.420;17.842;2023-06-14T07:44:42;101935.84;;;27.01;26.22
14293;BME280;62290;59.420;17.842;2023-06-14T07:47:11;101935.59;;;27.04;26.74
14293;BME280;62290;59.420;17.842;2023-06-14T07:49:39;101938.03;;;27.07;26.65
14293;BME280;62290;59.420;17.842;2023-06-14T07:52:07;101929.81;;;27.09;26.81
14293;BME280;62290;59.420;17.842;2023-06-14T07:54:36;101934.09;;;27.11;25.97
14293;BME280;62290;59.420;17.842;2023-06-14T07:57:06;101931.41;;;27.11;25.81
14293;BME280;62290;59.420;17.842;2023-06-14T07:59:34;101929.16;;;27.16;25.93
14293;BME280;62290;59.420;17.842;2023-06-14T08:02:02;101925.34;;;27.19;25.77
14293;BME280;62290;59.420;17.842;2023-06-14T08:04:31;101923.38;;;27.21;25.47
14293;BME280;62290;59.420;17.842;2023-06-14T08:06:59;101918.69;;;27.23;25.77
14293;BME280;62290;59.420;17.842;2023-06-14T08:09:27;101921.28;;;27.24;25.85
14293;BME280;62290;59.420;17.842;2023-06-14T08:11:56;101929.09;;;27.27;24.60
14293;BME280;62290;59.420;17.842;2023-06-14T08:14:26;101925.28;;;27.30;25.19
14293;BME280;62290;59.420;17.842;2023-06-14T08:16:54;101920.72;;;27.30;25.07
14293;BME280;62290;59.420;17.842;2023-06-14T08:19:22;101922.47;;;27.31;24.83
14293;BME280;62290;59.420;17.842;2023-06-14T08:21:50;101918.75;;;27.32;24.90
14293;BME280;62290;59.420;17.842;2023-06-14T08:24:20;101922.22;;;27.34;24.82
14293;BME280;62290;59.420;17.842;2023-06-14T08:26:51;101922.22;;;27.34;24.63
14293;BME280;62290;59.420;17.842;2023-06-14T08:29:19;101920.22;;;27.36;24.53
14293;BME280;62290;59.420;17.842;2023-06-14T08:31:48;101924.66;;;27.37;24.72
14293;BME280;62290;59.420;17.842;2023-06-14T08:34:16;101910.25;;;27.37;24.55
14293;BME280;62290;59.420;17.842;2023-06-14T08:36:44;101920.00;;;27.39;24.51
14293;BME280;62290;59.420;17.842;2023-06-14T08:39:12;101927.00;;;27.42;24.60
14293;BME280;62290;59.420;17.842;2023-06-14T08:41:40;101928.69;;;27.43;24.80
14293;BME280;62290;59.420;17.842;2023-06-14T08:44:10;101922.56;;;27.41;24.44
14293;BME280;62290;59.420;17.842;2023-06-14T08:46:38;101920.47;;;27.44;24.36
14293;BME280;62290;59.420;17.842;2023-06-14T08:49:08;101918.47;;;27.46;24.41
14293;BME280;62290;59.420;17.842;2023-06-14T08:51:39;101922.06;;;27.47;24.69
14293;BME280;62290;59.420;17.842;2023-06-14T08:54:07;101919.34;;;27.47;24.72
14293;BME280;62290;59.420;17.842;2023-06-14T08:56:37;101924.63;;;27.48;24.69
14293;BME280;62290;59.420;17.842;2023-06-14T08:59:09;101925.63;;;27.47;24.82
14293;BME280;62290;59.420;17.842;2023-06-14T09:01:37;101903.97;;;27.36;24.72
14293;BME280;62290;59.420;17.842;2023-06-14T09:04:11;101920.31;;;27.46;25.04
14293;BME280;62290;59.420;17.842;2023-06-14T09:06:39;101919.47;;;27.45;25.26
14293;BME280;62290;59.420;17.842;2023-06-14T09:09:08;101916.91;;;27.44;25.06
14293;BME280;62290;59.420;17.842;2023-06-14T09:11:36;101917.75;;;27.44;25.25
14293;BME280;62290;59.420;17.842;2023-06-14T09:14:04;101916.91;;;27.44;25.47
14293;BME280;62290;59.420;17.842;2023-06-14T09:16:32;101923.28;;;27.43;25.53
14293;BME280;62290;59.420;17.842;2023-06-14T09:19:00;101910.03;;;27.40;25.70
14293;BME280;62290;59.420;17.842;2023-06-14T09:21:33;101913.47;;;27.42;25.96
14293;BME280;62290;59.420;17.842;2023-06-14T09:24:03;101915.53;;;27.38;26.07
14293;BME280;62290;59.420;17.842;2023-06-14T09:26:31;101907.09;;;27.32;26.31
14293;BME280;62290;59.420;17.842;2023-06-14T09:28:59;101910.25;;;27.37;26.36
14293;BME280;62290;59.420;17.842;2023-06-14T09:31:27;101907.66;;;27.35;26.39
14293;BME280;62290;59.420;17.842;2023-06-14T09:34:02;101906.84;;;27.35;26.57
14293;BME280;62290;59.420;17.842;2023-06-14T09:36:32;101902.50;;;27.32;26.33
14293;BME280;62290;59.420;17.842;2023-06-14T09:39:01;101901.94;;;27.29;26.61
14293;BME280;62290;59.420;17.842;2023-06-14T09:41:33;101907.09;;;27.32;26.61
14293;BME280;62290;59.420;17.842;2023-06-14T09:44:02;101904.38;;;27.32;26.70
14293;BME280;62290;59.420;17.842;2023-06-14T09:46:36;101910.91;;;27.29;26.49
14293;BME280;62290;59.420;17.842;2023-06-14T09:49:05;101906.31;;;27.30;26.65
14293;BME280;62290;59.420;17.842;2023-06-14T09:51:36;101903.50;;;27.31;26.75
14293;BME280;62290;59.420;17.842;2023-06-14T09:54:15;101907.34;;;27.29;26.93
14293;BME280;62290;59.420;17.842;2023-06-14T09:56:45;101902.78;;;27.29;26.86
14293;BME280;62290;59.420;17.842;2023-06-14T09:59:18;101905.50;;;27.29;26.90
14293;BME280;62290;59.420;17.842;2023-06-14T10:01:48;101901.06;;;27.28;26.81
14293;BME280;62290;59.420;17.842;2023-06-14T10:04:19;101899.94;;;27.31;26.61
14293;BME280;62290;59.420;17.842;2023-06-14T10:06:50;101903.50;;;27.31;26.96
14293;BME280;62290;59.420;17.842;2023-06-14T10:09:21;101908.22;;;27.29;26.63
14293;BME280;62290;59.420;17.842;2023-06-14T10:11:50;101910.91;;;27.29;26.85
14293;BME280;62290;59.420;17.842;2023-06-14T10:14:18;101899.06;;;27.30;27.09
14293;BME280;62290;59.420;17.842;2023-06-14T10:16:53;101897.09;;;27.32;26.86
14293;BME280;62290;59.420;17.842;2023-06-14T10:19:27;101901.66;;;27.32;27.03
14293;BME280;62290;59.420;17.842;2023-06-14T10:22:06;101899.81;;;27.32;26.58
14293;BME280;62290;59.420;17.842;2023-06-14T10:24:40;101898.09;;;27.31;26.84
14293;BME280;62290;59.420;17.842;2023-06-14T10:27:09;101889.13;;;27.31;26.98
14293;BME280;62290;59.420;17.842;2023-06-14T10:30:02;101888.25;;;27.30;26.82
14293;BME280;62290;59.420;17.842;2023-06-14T10:32:31;101888.41;;;27.29;26.70
14293;BME280;62290;59.420;17.842;2023-06-14T10:35:01;101896.63;;;27.27;27.01
14293;BME280;62290;59.420;17.842;2023-06-14T10:37:31;101895.41;;;27.31;26.59
14293;BME280;62290;59.420;17.842;2023-06-14T10:39:59;101900.91;;;27.30;26.89
14293;BME280;62290;59.420;17.842;2023-06-14T10:42:31;101902.50;;;27.32;26.55
14293;BME280;62290;59.420;17.842;2023-06-14T10:45:00;101895.41;;;27.31;26.77
14293;BME280;62290;59.420;17.842;2023-06-14T10:47:29;101898.09;;;27.31;26.87
14293;BME280;62290;59.420;17.842;2023-06-14T10:50:03;101895.25;;;27.33;26.68
14293;BME280;62290;59.420;17.842;2023-06-14T10:52:37;101880.84;;;27.32;26.99
14293;BME280;62290;59.420;17.842;2023-06-14T10:55:08;101888.97;;;27.32;26.61
14293;BME280;62290;59.420;17.842;2023-06-14T10:57:43;101887.13;;;27.33;26.84
14293;BME280;62290;59.420;17.842;2023-06-14T11:00:19;101889.84;;;27.33;27.08
14293;BME280;62290;59.420;17.842;2023-06-14T11:03:33;101884.41;;;27.33;26.76
14293;BME280;62290;59.420;17.842;2023-06-14T11:06:13;101885.28;;;27.33;26.71
14293;BME280;62290;59.420;17.842;2023-06-14T11:09:24;101893.41;;;27.33;27.08
14293;BME280;62290;59.420;17.842;2023-06-14T11:11:57;101887.28;;;27.31;26.65
14293;BME280;62290;59.420;17.842;2023-06-14T11:14:25;101864.44;;;27.24;26.76
14293;BME280;62290;59.420;17.842;2023-06-14T11:16:53;101882.72;;;27.32;26.76
14293;BME280;62290;59.420;17.842;2023-06-14T11:19:21;101882.59;;;27.33;26.87
14293;BME280;62290;59.420;17.842;2023-06-14T11:21:49;101879.16;;;27.31;26.93
14293;BME280;62290;59.420;17.842;2023-06-14T11:24:18;101881.72;;;27.33;26.77
14293;BME280;62290;59.420;17.842;2023-06-14T11:26:48;101886.25;;;27.32;26.98
14293;BME280;62290;59.420;17.842;2023-06-14T11:29:16;101878.91;;;27.34;26.78
14293;BME280;62290;59.420;17.842;2023-06-14T11:31:48;101876.19;;;27.34;27.07
14293;BME280;62290;59.420;17.842;2023-06-14T11:34:17;101883.44;;;27.34;27.09
14293;BME280;62290;59.420;17.842;2023-06-14T11:36:45;101870.88;;;27.33;27.02
14293;BME280;62290;59.420;17.842;2023-06-14T11:39:14;101880.59;;;27.35;27.21
14293;BME280;62290;59.420;17.842;2023-06-14T11:41:44;101875.31;;;27.34;26.94
14293;BME280;62290;59.420;17.842;2023-06-14T11:44:13;101889.47;;;27.37;26.83
14293;BME280;62290;59.420;17.842;2023-06-14T11:46:41;101866.09;;;27.36;26.89
14293;BME280;62290;59.420;17.842;2023-06-14T11:49:09;101875.78;;;27.39;26.94
14293;BME280;62290;59.420;17.842;2023-06-14T11:51:37;101864.25;;;27.37;26.92
14293;BME280;62290;59.420;17.842;2023-06-14T11:54:06;101866.81;;;27.38;27.11
14293;BME280;62290;59.420;17.842;2023-06-14T11:56:36;101866.81;;;27.38;27.10
14293;BME280;62290;59.420;17.842;2023-06-14T11:59:04;101870.38;;;27.39;26.78
14293;BME280;62290;59.420;17.842;2023-06-14T12:01:37;101868.94;;;27.35;27.16
14293;BME280;62290;59.420;17.842;2023-06-14T12:04:06;101850.59;;;27.27;26.85
14293;BME280;62290;59.420;17.842;2023-06-14T12:06:35;101874.84;;;27.40;26.95
14293;BME280;62290;59.420;17.842;2023-06-14T12:09:07;101876.69;;;27.39;27.07
14293;BME280;62290;59.420;17.842;2023-06-14T12:11:40;101868.66;;;27.38;26.83
14293;BME280;62290;59.420;17.842;2023-06-14T12:14:09;101871.13;;;27.41;26.79
14293;BME280;62290;59.420;17.842;2023-06-14T12:16:39;101861.16;;;27.41;27.13
14293;BME280;62290;59.420;17.842;2023-06-14T12:19:12;101861.16;;;27.41;26.94
14293;BME280;62290;59.420;17.842;2023-06-14T12:21:41;101856.72;;;27.40;27.14
14293;BME280;62290;59.420;17.842;2023-06-14T12:24:12;101869.28;;;27.41;27.03
14293;BME280;62290;59.420;17.842;2023-06-14T12:26:41;101854.88;;;27.41;26.68
14293;BME280;62290;59.420;17.842;2023-06-14T12:29:09;101863.88;;;27.41;26.72
14293;BME280;62290;59.420;17.842;2023-06-14T12:31:41;101855.75;;;27.41;26.71
14293;BME280;62290;59.420;17.842;2023-06-14T12:34:09;101857.47;;;27.42;26.77
14293;BME280;62290;59.420;17.842;2023-06-14T12:36:38;101845.53;;;27.34;26.93
14293;BME280;62290;59.420;17.842;2023-06-14T12:39:11;101867.56;;;27.40;26.75
14293;BME280;62290;59.420;17.842;2023-06-14T12:41:39;101855.75;;;27.41;27.00
14293;BME280;62290;59.420;17.842;2023-06-14T12:44:08;101857.47;;;27.42;26.72
14293;BME280;62290;59.420;17.842;2023-06-14T12:46:37;101853.91;;;27.42;26.91
14293;BME280;62290;59.420;17.842;2023-06-14T12:49:09;101860.19;;;27.42;26.95
14293;BME280;62290;59.420;17.842;2023-06-14T12:51:38;101852.19;;;27.41;26.84
14293;BME280;62290;59.420;17.842;2023-06-14T12:54:07;101852.19;;;27.41;26.88